Time;durP1;ratioP1;P1;durP2;ratioP2;P2;SDS_P1;SDS_P2;PMS_P1;PMS_P2;Temp;Humidity;BMP_temperature;BMP_pressure;BME280_temperature;BME280_humidity;BME280_pressure;Samples;Min_cycle;Max_cycle;Signal;HPM_P1;HPM_P2
2022/09/09 00:02:00;;;;;;;5.63;0.95;;;17.40;99.90;;;;;;5031282;28;20029;-82
2022/09/09 00:04:37;;;;;;;3.63;1.00;;;17.40;99.90;;;;;;5031245;28;20473;-82
2022/09/09 00:07:23;;;;;;;2.70;0.77;;;17.40;99.90;;;;;;5031019;28;20041;-82
2022/09/09 00:10:08;;;;;;;3.50;0.68;;;17.40;99.90;;;;;;5031071;28;20041;-82
2022/09/09 00:12:55;;;;;;;2.47;0.80;;;17.40;99.90;;;;;;5031218;28;20026;-82
2022/09/09 00:15:25;;;;;;;3.70;0.73;;;17.40;99.90;;;;;;5031215;28;20052;-82
2022/09/09 00:17:56;;;;;;;3.35;0.63;;;17.50;99.90;;;;;;5030723;28;20148;-82
2022/09/09 00:20:51;;;;;;;1.88;0.75;;;17.40;99.90;;;;;;5030867;28;20018;-82
2022/09/09 00:23:39;;;;;;;3.47;1.00;;;17.40;99.90;;;;;;5022320;28;20037;-82
2022/09/09 00:26:30;;;;;;;4.32;0.80;;;17.40;99.90;;;;;;5030933;28;20029;-82
2022/09/09 00:29:03;;;;;;;2.70;0.90;;;17.40;99.90;;;;;;5030756;28;20533;-82
2022/09/09 00:31:31;;;;;;;4.95;0.88;;;17.30;99.90;;;;;;5013020;28;20025;-82
2022/09/09 00:34:12;;;;;;;4.10;1.00;;;17.30;99.90;;;;;;5030994;28;20025;-82
2022/09/09 00:36:39;;;;;;;2.22;1.00;;;17.30;99.90;;;;;;5030612;28;20113;-82
2022/09/09 00:39:09;;;;;;;2.17;0.88;;;17.30;99.90;;;;;;4996740;28;20049;-82
2022/09/09 00:41:54;;;;;;;4.05;0.93;;;17.30;99.90;;;;;;5030846;28;20389;-82
2022/09/09 00:44:36;;;;;;;3.80;1.00;;;17.20;99.90;;;;;;5013092;28;20037;-82
2022/09/09 00:47:20;;;;;;;2.33;0.82;;;17.20;99.90;;;;;;5012756;28;20076;-82
2022/09/09 00:50:24;;;;;;;4.45;0.90;;;17.20;99.90;;;;;;5012732;28;20029;-82
2022/09/09 00:52:59;;;;;;;3.80;1.02;;;17.20;99.90;;;;;;5030621;28;20037;-82
2022/09/09 00:55:36;;;;;;;1.48;0.88;;;17.20;99.90;;;;;;5013053;28;20044;-82
2022/09/09 00:58:02;;;;;;;2.90;1.10;;;17.20;99.90;;;;;;5030626;28;20018;-82
2022/09/09 01:00:51;;;;;;;2.95;1.02;;;17.20;99.90;;;;;;5030746;28;20064;-82
2022/09/09 01:03:21;;;;;;;4.95;1.00;;;17.20;99.90;;;;;;5030588;28;20021;-82
2022/09/09 01:06:03;;;;;;;3.25;1.05;;;17.20;99.90;;;;;;5012763;28;20029;-82
2022/09/09 01:08:38;;;;;;;1.98;0.68;;;17.20;99.90;;;;;;5030435;28;20030;-82
2022/09/09 01:11:06;;;;;;;1.95;0.82;;;17.20;99.90;;;;;;5012642;28;20109;-82
2022/09/09 01:13:35;;;;;;;1.60;0.93;;;17.20;99.90;;;;;;5012776;28;20040;-82
2022/09/09 01:16:11;;;;;;;3.92;1.05;;;17.20;99.90;;;;;;5012307;28;20498;-82
2022/09/09 01:18:46;;;;;;;3.97;0.98;;;17.20;99.90;;;;;;5012482;28;20029;-82
2022/09/09 01:21:27;;;;;;;2.80;0.80;;;17.20;99.90;;;;;;5012685;28;20047;-82
2022/09/09 01:24:27;;;;;;;2.15;0.73;;;17.10;99.90;;;;;;5012598;28;20063;-83
2022/09/09 01:27:16;;;;;;;3.70;1.20;;;17.10;99.90;;;;;;5012449;28;20398;-82
2022/09/09 01:29:42;;;;;;;2.92;0.85;;;17.10;99.90;;;;;;5012185;28;20025;-82
2022/09/09 01:32:47;;;;;;;3.28;1.02;;;17.10;99.90;;;;;;5033973;28;20037;-82
2022/09/09 01:35:30;;;;;;;3.22;1.15;;;17.00;99.90;;;;;;5016206;28;20029;-82
2022/09/09 01:37:56;;;;;;;5.10;1.60;;;17.00;99.90;;;;;;4999741;28;20033;-82
2022/09/09 01:40:23;;;;;;;3.38;1.35;;;17.00;99.90;;;;;;5033708;28;20029;-82
2022/09/09 01:42:49;;;;;;;4.85;1.20;;;17.00;99.90;;;;;;5016326;28;20041;-82
2022/09/09 01:45:15;;;;;;;4.28;1.25;;;17.00;99.90;;;;;;5016212;28;20037;-83
2022/09/09 01:47:41;;;;;;;3.25;0.95;;;17.00;99.90;;;;;;5015868;28;20033;-82
2022/09/09 01:50:28;;;;;;;2.75;1.10;;;17.00;99.90;;;;;;5015937;28;20486;-82
2022/09/09 01:52:59;;;;;;;2.75;0.95;;;16.90;99.90;;;;;;5016225;28;20504;-83
2022/09/09 01:55:37;;;;;;;1.40;0.80;;;16.90;99.90;;;;;;5015916;28;20107;-82
2022/09/09 01:58:31;;;;;;;3.47;1.40;;;16.90;99.90;;;;;;5016134;28;20033;-82
2022/09/09 02:01:22;;;;;;;4.35;1.17;;;16.90;99.90;;;;;;5015922;28;20036;-82
2022/09/09 02:03:55;;;;;;;2.90;0.98;;;16.90;99.90;;;;;;5015773;28;20112;-83
2022/09/09 02:06:27;;;;;;;2.75;1.10;;;16.90;99.90;;;;;;5015621;28;20302;-82
2022/09/09 02:09:00;;;;;;;3.17;1.15;;;17.00;99.90;;;;;;5015587;28;20033;-83
2022/09/09 02:11:28;;;;;;;2.92;0.95;;;17.00;99.90;;;;;;5015546;28;20059;-83
2022/09/09 02:14:21;;;;;;;3.92;1.30;;;17.00;99.90;;;;;;5015598;28;20038;-83
2022/09/09 02:16:55;;;;;;;2.72;1.02;;;17.00;99.90;;;;;;5015259;28;20102;-83
2022/09/09 02:19:35;;;;;;;2.30;1.00;;;17.10;99.90;;;;;;5015364;28;20037;-83
2022/09/09 02:22:23;;;;;;;2.25;0.90;;;17.10;99.90;;;;;;5015394;28;20029;-83
2022/09/09 02:24:53;;;;;;;3.38;1.00;;;17.10;99.90;;;;;;5033255;28;20029;-82
2022/09/09 02:27:23;;;;;;;1.92;0.90;;;17.20;99.90;;;;;;5015294;28;20025;-83
2022/09/09 02:29:52;;;;;;;3.55;1.10;;;17.20;99.90;;;;;;5015012;28;20026;-83
2022/09/09 02:32:25;;;;;;;2.35;1.00;;;17.30;99.90;;;;;;5015197;28;20098;-83
2022/09/09 02:35:03;;;;;;;2.97;1.10;;;17.30;99.90;;;;;;5015129;28;20301;-83
2022/09/09 02:37:37;;;;;;;1.90;0.88;;;17.30;99.90;;;;;;5047304;22;20072;-73
2022/09/09 02:40:08;;;;;;;4.80;1.33;;;17.30;99.90;;;;;;5015111;28;20509;-74
2022/09/09 02:42:46;;;;;;;4.03;1.02;;;17.30;99.90;;;;;;5015057;28;20025;-75
2022/09/09 02:45:19;;;;;;;4.00;1.52;;;17.40;99.90;;;;;;5015206;28;20371;-74
2022/09/09 02:48:08;;;;;;;3.95;1.30;;;17.40;99.90;;;;;;5015115;28;20026;-73
2022/09/09 02:50:39;;;;;;;3.75;1.63;;;17.40;99.90;;;;;;5015022;28;20030;-73
2022/09/09 02:53:24;;;;;;;4.72;1.70;;;17.50;99.90;;;;;;5015078;28;20034;-73
2022/09/09 02:56:09;;;;;;;4.75;1.25;;;17.40;99.90;;;;;;5015029;28;20041;-74
2022/09/09 02:58:39;;;;;;;3.08;1.08;;;17.40;99.90;;;;;;5014769;28;20045;-73
2022/09/09 03:01:06;;;;;;;4.10;1.30;;;17.30;99.90;;;;;;5014862;28;20025;-74
2022/09/09 03:03:32;;;;;;;3.70;1.00;;;17.20;99.90;;;;;;5032511;28;20083;-73
2022/09/09 03:06:01;;;;;;;4.72;0.95;;;17.30;99.90;;;;;;5014645;28;20025;-73
2022/09/09 03:08:28;;;;;;;6.07;1.65;;;17.30;99.90;;;;;;5014878;28;20565;-73
2022/09/09 03:10:55;;;;;;;2.95;1.45;;;17.20;99.90;;;;;;5014699;28;20120;-73
2022/09/09 03:13:24;;;;;;;4.60;1.42;;;17.20;99.90;;;;;;5014642;28;20026;-73
2022/09/09 03:15:50;;;;;;;6.25;2.88;;;17.10;99.90;;;;;;5032222;28;20099;-73
2022/09/09 03:18:18;;;;;;;6.50;2.50;;;17.10;99.90;;;;;;5014595;28;20018;-73
2022/09/09 03:20:50;;;;;;;4.55;1.80;;;17.10;99.90;;;;;;5014283;28;20040;-73
2022/09/09 03:23:18;;;;;;;5.07;1.75;;;17.10;99.90;;;;;;5014652;28;20241;-73
2022/09/09 03:25:52;;;;;;;4.40;1.83;;;17.10;99.90;;;;;;5014377;28;20033;-73
2022/09/09 03:28:30;;;;;;;5.70;2.00;;;17.10;99.90;;;;;;5014309;28;20478;-73
2022/09/09 03:31:02;;;;;;;5.03;1.60;;;17.10;99.90;;;;;;5014264;28;20040;-73
2022/09/09 03:33:31;;;;;;;4.40;1.50;;;17.00;99.90;;;;;;5014573;28;20029;-73
2022/09/09 03:35:57;;;;;;;5.40;1.67;;;17.00;99.90;;;;;;5014200;28;20037;-73
2022/09/09 03:38:25;;;;;;;4.55;1.40;;;16.90;99.90;;;;;;5032013;28;20493;-73
2022/09/09 03:40:57;;;;;;;4.88;1.58;;;17.00;99.90;;;;;;5031720;28;20022;-73
2022/09/09 03:43:25;;;;;;;5.28;1.88;;;16.90;99.90;;;;;;5014192;28;20029;-73
2022/09/09 03:45:52;;;;;;;7.55;1.60;;;16.90;99.90;;;;;;5014197;28;20087;-73
2022/09/09 03:48:19;;;;;;;6.05;1.75;;;16.90;99.90;;;;;;5014056;28;20402;-73
2022/09/09 03:50:47;;;;;;;7.78;1.80;;;16.90;99.90;;;;;;5013638;28;20033;-73
2022/09/09 03:53:15;;;;;;;6.63;1.77;;;16.90;99.90;;;;;;5013414;28;20504;-73
2022/09/09 03:55:45;;;;;;;4.40;1.90;;;16.90;99.90;;;;;;5031356;28;20037;-73
2022/09/09 03:58:18;;;;;;;5.85;1.63;;;16.90;99.90;;;;;;5014088;28;20048;-73
2022/09/09 04:00:52;;;;;;;4.75;1.70;;;16.80;99.90;;;;;;5013694;28;20033;-73
2022/09/09 04:03:18;;;;;;;4.25;1.92;;;16.90;99.90;;;;;;5031566;28;20031;-73
2022/09/09 04:05:48;;;;;;;6.90;2.00;;;16.90;99.90;;;;;;5013751;28;20029;-73
2022/09/09 04:08:14;;;;;;;6.43;1.77;;;16.90;99.90;;;;;;5031458;28;20543;-73
2022/09/09 04:10:41;;;;;;;4.50;1.60;;;16.90;99.90;;;;;;5013463;28;20040;-73
2022/09/09 04:13:07;;;;;;;4.45;1.70;;;16.80;99.90;;;;;;5013567;28;20033;-73
2022/09/09 04:15:34;;;;;;;4.97;1.98;;;16.90;99.90;;;;;;5031234;28;20053;-73
2022/09/09 04:18:00;;;;;;;4.25;1.60;;;16.90;99.90;;;;;;5013411;28;20085;-73
2022/09/09 04:20:27;;;;;;;4.03;1.60;;;16.90;99.90;;;;;;5013494;28;20120;-73
2022/09/09 04:22:53;;;;;;;5.13;1.80;;;16.90;99.90;;;;;;5031112;28;20032;-73
2022/09/09 04:25:20;;;;;;;7.70;2.35;;;16.90;99.90;;;;;;4997294;28;20026;-74
2022/09/09 04:27:47;;;;;;;7.82;2.60;;;16.90;99.90;;;;;;5031084;28;20600;-73
2022/09/09 04:30:13;;;;;;;6.35;1.73;;;16.90;99.90;;;;;;5013501;28;20033;-73
2022/09/09 04:32:40;;;;;;;3.58;1.60;;;16.90;99.90;;;;;;5013396;28;20040;-73
2022/09/09 04:35:07;;;;;;;6.28;1.77;;;16.90;99.90;;;;;;5013221;28;20033;-73
2022/09/09 04:37:33;;;;;;;5.13;1.60;;;16.90;99.90;;;;;;5013141;28;20034;-73
2022/09/09 04:40:02;;;;;;;5.00;1.95;;;17.00;99.90;;;;;;4996800;28;20028;-73
2022/09/09 04:42:29;;;;;;;6.70;1.70;;;17.10;99.90;;;;;;5013225;28;20021;-73
2022/09/09 04:44:55;;;;;;;5.60;1.70;;;17.10;99.90;;;;;;4996889;28;20524;-73
2022/09/09 04:47:22;;;;;;;7.05;1.90;;;17.10;99.90;;;;;;5030716;28;20049;-73
2022/09/09 04:49:48;;;;;;;6.25;1.48;;;17.20;99.90;;;;;;4996744;28;20025;-73
2022/09/09 04:52:17;;;;;;;5.65;2.00;;;17.30;99.90;;;;;;5030835;28;20021;-73
2022/09/09 04:54:45;;;;;;;8.18;2.13;;;17.20;99.90;;;;;;5030839;28;20108;-73
2022/09/09 04:57:11;;;;;;;6.95;1.88;;;17.30;99.90;;;;;;5013048;28;20057;-73
2022/09/09 04:59:37;;;;;;;5.88;2.38;;;17.20;99.90;;;;;;5012870;28;20017;-73
2022/09/09 05:02:03;;;;;;;13.55;3.15;;;17.30;99.90;;;;;;5012878;28;20375;-73
2022/09/09 05:04:29;;;;;;;5.75;2.08;;;17.30;99.90;;;;;;5014278;28;20029;-73
2022/09/09 05:06:56;;;;;;;5.80;2.05;;;17.40;99.90;;;;;;5017092;28;20033;-73
2022/09/09 05:09:24;;;;;;;5.93;1.63;;;17.40;99.90;;;;;;5017448;28;20116;-73
2022/09/09 05:11:51;;;;;;;13.20;3.20;;;17.40;99.90;;;;;;5016888;28;20144;-73
2022/09/09 05:14:30;;;;;;;8.75;3.20;;;17.40;99.90;;;;;;5016976;28;20525;-73
2022/09/09 05:16:57;;;;;;;7.57;2.42;;;17.40;99.90;;;;;;5034326;28;20036;-73
2022/09/09 05:19:24;;;;;;;8.85;2.78;;;17.40;99.90;;;;;;5034645;28;20030;-73
2022/09/09 05:21:52;;;;;;;7.25;1.80;;;17.40;99.90;;;;;;5016647;28;20282;-73
2022/09/09 05:24:25;;;;;;;6.35;2.40;;;17.40;99.90;;;;;;5016674;28;20029;-73
2022/09/09 05:26:55;;;;;;;7.53;1.58;;;17.40;99.90;;;;;;5016862;28;20584;-73
2022/09/09 05:29:22;;;;;;;7.55;1.70;;;17.40;99.90;;;;;;5016508;28;20509;-73
2022/09/09 05:31:48;;;;;;;7.47;1.95;;;17.40;99.90;;;;;;5000201;28;20640;-73
2022/09/09 05:34:18;;;;;;;5.53;2.67;;;17.30;99.90;;;;;;5016659;28;20033;-73
2022/09/09 05:36:44;;;;;;;10.48;2.03;;;17.30;99.90;;;;;;5034053;28;20536;-73
2022/09/09 05:39:11;;;;;;;6.40;1.90;;;17.40;99.90;;;;;;5016394;28;20108;-73
2022/09/09 05:41:37;;;;;;;8.30;1.83;;;17.30;99.90;;;;;;5016322;28;20022;-73
2022/09/09 05:44:04;;;;;;;4.03;1.80;;;17.30;99.90;;;;;;5016520;28;20030;-73
2022/09/09 05:46:34;;;;;;;9.57;2.33;;;17.30;99.90;;;;;;5016217;28;20030;-73
2022/09/09 05:49:02;;;;;;;7.40;2.20;;;17.20;99.90;;;;;;5016224;28;20394;-73
2022/09/09 05:51:30;;;;;;;6.45;1.92;;;17.20;99.90;;;;;;5016163;28;20029;-73
2022/09/09 05:53:58;;;;;;;8.93;2.15;;;17.20;99.90;;;;;;5000136;28;20030;-73
2022/09/09 05:56:28;;;;;;;9.43;2.10;;;17.20;99.90;;;;;;5016108;28;20501;-74
2022/09/09 05:58:56;;;;;;;7.25;2.00;;;17.20;99.90;;;;;;5015984;28;20487;-73
2022/09/09 06:01:26;;;;;;;6.03;2.00;;;17.20;99.90;;;;;;5016155;28;20394;-73
2022/09/09 06:03:53;;;;;;;8.10;2.35;;;17.20;99.90;;;;;;5015877;28;20125;-73
2022/09/09 06:06:25;;;;;;;6.40;2.05;;;17.20;99.90;;;;;;5015892;28;20208;-73
2022/09/09 06:08:59;;;;;;;6.93;2.00;;;17.30;99.90;;;;;;5015762;28;20406;-73
2022/09/09 06:11:31;;;;;;;8.55;2.10;;;17.40;99.90;;;;;;5016072;28;20025;-74
2022/09/09 06:13:59;;;;;;;8.45;1.90;;;17.40;99.90;;;;;;5015866;28;20099;-73
2022/09/09 06:16:27;;;;;;;7.95;2.10;;;17.50;99.90;;;;;;5014887;28;20445;-73
2022/09/09 06:18:54;;;;;;;6.33;1.97;;;17.50;99.90;;;;;;5015557;28;20028;-73
2022/09/09 06:21:32;;;;;;;7.70;2.00;;;17.60;99.90;;;;;;5015593;28;20021;-73
2022/09/09 06:24:00;;;;;;;;;;;17.60;99.90;;;;;;5016255;28;20030;-73
2022/09/09 06:26:32;;;;;;;7.25;2.08;;;17.60;99.90;;;;;;4999258;28;19987;-73
2022/09/09 06:29:03;;;;;;;6.45;1.63;;;17.70;99.90;;;;;;5015393;28;20036;-74
2022/09/09 06:31:31;;;;;;;6.57;1.90;;;17.70;99.90;;;;;;5015365;28;20064;-73
2022/09/09 06:34:01;;;;;;;6.82;1.85;;;17.80;99.90;;;;;;5015701;28;20036;-73
2022/09/09 06:36:33;;;;;;;8.47;2.10;;;17.80;99.90;;;;;;5015207;28;20030;-73
2022/09/09 06:39:00;;;;;;;8.02;2.10;;;17.80;99.90;;;;;;5015179;28;20321;-73
2022/09/09 06:41:31;;;;;;;6.68;1.77;;;17.90;99.90;;;;;;5015206;28;20026;-73
2022/09/09 06:43:57;;;;;;;6.80;2.10;;;17.90;99.90;;;;;;5015843;28;20733;-73
2022/09/09 06:46:32;;;;;;;5.25;1.88;;;17.90;99.90;;;;;;5015120;28;20493;-73
2022/09/09 06:49:00;;;;;;;7.85;1.90;;;17.90;99.90;;;;;;5015196;28;20318;-73
2022/09/09 06:51:31;;;;;;;7.70;1.67;;;17.90;99.90;;;;;;5032866;28;20403;-73
2022/09/09 06:53:59;;;;;;;8.82;2.70;;;17.90;99.90;;;;;;5032982;28;20402;-73
2022/09/09 06:56:34;;;;;;;14.10;2.60;;;18.00;99.90;;;;;;5015051;28;20033;-73
2022/09/09 06:59:07;;;;;;;5.95;1.80;;;18.00;99.90;;;;;;5014646;28;20168;-73
2022/09/09 07:01:37;;;;;;;6.20;1.85;;;18.00;99.90;;;;;;5014868;28;20021;-73
2022/09/09 07:04:07;;;;;;;6.07;1.80;;;18.00;99.90;;;;;;5015042;28;20033;-73
2022/09/09 07:06:37;;;;;;;6.28;1.90;;;18.00;99.90;;;;;;5014734;28;20029;-73
2022/09/09 07:09:09;;;;;;;7.30;1.50;;;17.90;99.90;;;;;;5014783;28;20034;-73
2022/09/09 07:11:41;;;;;;;5.25;1.33;;;18.00;99.90;;;;;;5014627;28;20033;-73
2022/09/09 07:14:08;;;;;;;;;;;18.00;99.90;;;;;;5032962;28;20033;-73
2022/09/09 07:16:36;;;;;;;6.45;1.60;;;18.00;99.90;;;;;;5014484;28;19938;-73
2022/09/09 07:19:03;;;;;;;;;;;18.00;99.90;;;;;;5014952;28;20025;-73
2022/09/09 07:21:31;;;;;;;7.85;2.05;;;18.00;99.90;;;;;;5014515;28;19959;-73
2022/09/09 07:23:57;;;;;;;5.15;1.63;;;18.00;99.90;;;;;;5014419;28;20048;-73
2022/09/09 07:26:27;;;;;;;7.05;1.42;;;18.00;99.90;;;;;;5014372;28;20029;-73
2022/09/09 07:28:56;;;;;;;6.40;1.70;;;18.10;99.90;;;;;;5013380;28;20125;-73
2022/09/09 07:31:30;;;;;;;8.27;1.50;;;18.10;99.90;;;;;;5014437;28;20394;-73
2022/09/09 07:33:57;;;;;;;9.77;1.50;;;18.20;99.90;;;;;;5014556;28;20044;-73
2022/09/09 07:36:27;;;;;;;10.32;1.67;;;18.20;99.90;;;;;;5031749;28;20364;-73
2022/09/09 07:38:59;;;;;;;9.73;2.03;;;18.20;99.90;;;;;;5014123;28;20029;-73
2022/09/09 07:41:30;;;;;;;11.60;1.77;;;18.30;99.90;;;;;;5014165;28;20492;-73
2022/09/09 07:43:56;;;;;;;6.32;1.80;;;18.20;99.90;;;;;;5014181;28;20052;-73
2022/09/09 07:46:25;;;;;;;9.07;1.90;;;18.30;99.90;;;;;;5013992;28;20032;-73
2022/09/09 07:48:54;;;;;;;7.63;1.80;;;18.30;99.90;;;;;;5013853;28;20422;-73
2022/09/09 07:51:30;;;;;;;7.20;1.77;;;18.30;99.90;;;;;;5014126;28;20182;-73
2022/09/09 07:54:04;;;;;;;9.07;2.10;;;18.30;99.90;;;;;;5031869;28;20022;-73
2022/09/09 07:56:33;;;;;;;8.00;1.90;;;18.30;99.90;;;;;;5013914;28;20060;-73
2022/09/09 07:59:00;;;;;;;5.93;1.33;;;18.30;99.90;;;;;;5013817;28;20036;-73
2022/09/09 08:01:32;;;;;;;8.00;1.58;;;18.30;99.90;;;;;;5013665;28;20029;-73
2022/09/09 08:04:03;;;;;;;5.65;1.52;;;18.30;99.90;;;;;;5013898;28;20029;-73
2022/09/09 08:06:37;;;;;;;5.85;1.70;;;18.30;99.90;;;;;;5013724;28;20029;-73
2022/09/09 08:09:04;;;;;;;7.35;1.75;;;18.30;99.90;;;;;;5013614;28;20036;-73
2022/09/09 08:11:32;;;;;;;8.23;1.90;;;18.40;99.90;;;;;;5013600;28;20029;-73
2022/09/09 08:14:00;;;;;;;6.75;1.45;;;18.40;99.90;;;;;;5013541;28;20394;-73
2022/09/09 08:16:38;;;;;;;6.53;1.70;;;18.50;99.90;;;;;;4997161;28;20045;-73
2022/09/09 08:19:07;;;;;;;8.27;1.80;;;18.50;99.90;;;;;;5031156;28;20021;-73
2022/09/09 08:21:38;;;;;;;9.00;1.73;;;18.50;99.90;;;;;;5013344;28;20037;-73
2022/09/09 08:24:07;;;;;;;6.88;1.40;;;18.50;99.90;;;;;;5031330;28;20025;-73
2022/09/09 08:26:43;;;;;;;9.55;2.10;;;18.60;99.90;;;;;;5013321;28;20041;-73
2022/09/09 08:29:12;;;;;;;8.65;1.88;;;18.60;99.90;;;;;;5013387;28;20025;-73
2022/09/09 08:31:40;;;;;;;;;;;18.70;99.90;;;;;;5013735;28;20099;-73
2022/09/09 08:34:07;;;;;;;6.60;1.38;;;18.70;99.90;;;;;;5013382;28;20383;-73
2022/09/09 08:36:43;;;;;;;8.65;1.40;;;18.80;99.90;;;;;;5038106;22;20040;-83
2022/09/09 08:39:11;;;;;;;7.47;1.50;;;18.80;99.90;;;;;;5007097;28;20046;-82
2022/09/09 08:41:58;;;;;;;;;;;18.80;99.90;;;;;;4993813;28;20109;-83
2022/09/09 08:44:54;;;;;;;8.73;1.08;;;18.80;99.90;;;;;;4993457;28;19914;-83
2022/09/09 08:47:39;;;;;;;3.78;1.30;;;18.80;99.90;;;;;;5009381;28;20022;-82
2022/09/09 08:50:05;;;;;;;4.75;1.40;;;18.80;99.90;;;;;;4993008;28;20037;-82
2022/09/09 08:52:37;;;;;;;6.30;1.30;;;18.90;99.90;;;;;;4993516;28;20111;-82
2022/09/09 08:55:21;;;;;;;5.65;1.38;;;18.90;99.90;;;;;;5009592;28;20052;-83
2022/09/09 08:57:49;;;;;;;4.40;1.13;;;19.00;99.90;;;;;;4993172;28;20026;-82
2022/09/09 09:00:15;;;;;;;6.65;1.52;;;19.10;99.70;;;;;;4993397;28;20121;-83
2022/09/09 09:03:20;;;;;;;8.05;1.70;;;19.10;99.60;;;;;;5010950;28;20052;-83
2022/09/09 09:05:55;;;;;;;5.65;1.10;;;19.20;99.30;;;;;;4997224;28;20045;-83
2022/09/09 09:08:35;;;;;;;6.50;1.80;;;19.30;99.10;;;;;;5009289;28;20109;-83
2022/09/09 09:11:01;;;;;;;7.60;1.27;;;19.30;98.50;;;;;;4993128;28;20187;-82
2022/09/09 09:13:46;;;;;;;4.65;1.60;;;19.30;98.80;;;;;;4993238;28;20387;-83
2022/09/09 09:16:17;;;;;;;5.75;1.15;;;19.30;98.50;;;;;;5009334;28;20029;-82
2022/09/09 09:18:43;;;;;;;;;;;19.30;98.30;;;;;;5009516;28;20088;-82
2022/09/09 09:21:20;;;;;;;3.08;1.10;;;19.30;98.40;;;;;;4993210;28;20000;-82
2022/09/09 09:23:56;;;;;;;7.18;1.45;;;19.20;98.30;;;;;;5009483;28;20053;-82
2022/09/09 09:26:26;;;;;;;5.90;1.40;;;19.30;98.60;;;;;;4992810;28;20026;-83
2022/09/09 09:28:57;;;;;;;3.20;0.93;;;19.30;98.50;;;;;;4992780;28;20030;-83
2022/09/09 09:31:26;;;;;;;6.00;1.58;;;19.30;98.60;;;;;;4993013;28;20041;-82
2022/09/09 09:33:58;;;;;;;4.82;1.40;;;19.30;98.40;;;;;;4992794;28;20034;-82
2022/09/09 09:36:42;;;;;;;7.75;1.70;;;19.40;98.40;;;;;;4992770;28;20029;-83
2022/09/09 09:39:21;;;;;;;7.40;1.30;;;19.40;98.20;;;;;;5009222;28;20079;-82
2022/09/09 09:41:48;;;;;;;6.65;1.58;;;19.40;98.20;;;;;;4976969;28;20062;-83
2022/09/09 09:44:28;;;;;;;3.35;1.13;;;19.40;98.00;;;;;;5009198;28;20038;-82
2022/09/09 09:47:11;;;;;;;5.97;1.42;;;19.40;97.60;;;;;;4992765;28;20099;-82
2022/09/09 09:49:36;;;;;;;5.82;1.40;;;19.40;97.40;;;;;;4992577;28;20026;-82
2022/09/09 09:52:04;;;;;;;5.80;1.30;;;19.40;97.60;;;;;;4994509;28;20398;-82
2022/09/09 09:54:37;;;;;;;3.90;1.10;;;19.40;97.50;;;;;;4996374;28;20036;-82
2022/09/09 09:57:17;;;;;;;6.65;1.55;;;19.40;97.20;;;;;;4996001;28;20033;-83
2022/09/09 09:59:45;;;;;;;5.43;1.77;;;19.40;97.50;;;;;;4996201;28;20029;-83
2022/09/09 10:02:17;;;;;;;6.15;1.10;;;19.40;97.50;;;;;;5013846;28;20084;-82
2022/09/09 10:04:47;;;;;;;10.05;1.95;;;19.50;97.10;;;;;;5012494;28;20026;-83
2022/09/09 10:07:22;;;;;;;7.72;1.58;;;19.50;97.20;;;;;;4995790;28;20517;-83
2022/09/09 10:09:56;;;;;;;2.95;1.00;;;19.60;96.30;;;;;;5013445;28;20030;-83
2022/09/09 10:12:37;;;;;;;5.57;1.23;;;19.60;96.10;;;;;;5013657;28;20494;-82
2022/09/09 10:15:36;;;;;;;5.07;1.10;;;19.70;96.10;;;;;;5013698;28;20120;-83
2022/09/09 10:18:31;;;;;;;4.10;1.27;;;19.70;95.60;;;;;;5013685;28;20030;-82
2022/09/09 10:21:16;;;;;;;2.58;1.08;;;19.70;95.20;;;;;;4995833;28;20395;-82
2022/09/09 10:24:01;;;;;;;6.32;1.20;;;19.80;94.90;;;;;;4996055;28;20100;-82
2022/09/09 10:26:44;;;;;;;6.72;1.35;;;19.80;95.10;;;;;;5013174;28;20104;-83
2022/09/09 10:29:52;;;;;;;5.43;1.25;;;19.80;95.30;;;;;;5013187;28;20030;-82
2022/09/09 10:32:21;;;;;;;3.35;0.75;;;19.80;95.30;;;;;;5013256;28;20030;-82
2022/09/09 10:35:09;;;;;;;5.90;1.20;;;19.80;95.40;;;;;;5013227;28;20033;-82
2022/09/09 10:37:42;;;;;;;4.13;1.05;;;19.80;95.50;;;;;;5012932;28;20406;-82
2022/09/09 10:40:30;;;;;;;4.05;1.38;;;19.80;95.60;;;;;;5012868;28;20033;-82
2022/09/09 10:43:34;;;;;;;8.10;1.58;;;19.80;95.60;;;;;;5013076;28;20116;-82
2022/09/09 10:46:06;;;;;;;3.72;1.00;;;19.70;95.80;;;;;;5012840;28;20026;-83
2022/09/09 10:48:43;;;;;;;4.10;1.13;;;19.70;95.70;;;;;;5012696;28;20037;-82
2022/09/09 10:51:42;;;;;;;6.10;1.13;;;19.60;95.80;;;;;;5012985;28;20395;-82
2022/09/09 10:54:14;;;;;;;5.50;1.50;;;19.60;96.00;;;;;;5012854;28;20034;-82
2022/09/09 10:56:43;;;;;;;4.22;1.00;;;19.50;95.90;;;;;;5012438;28;20148;-82
2022/09/09 10:59:23;;;;;;;5.80;1.20;;;19.60;95.60;;;;;;5012679;28;20471;-83
2022/09/09 11:01:59;;;;;;;5.35;1.17;;;19.60;95.40;;;;;;5011411;28;20076;-82
2022/09/09 11:04:34;;;;;;;4.68;1.30;;;19.70;95.30;;;;;;5012921;28;20026;-82
2022/09/09 11:07:06;;;;;;;3.53;0.80;;;19.70;95.00;;;;;;5012443;28;20025;-82
2022/09/09 11:09:41;;;;;;;4.35;1.45;;;19.70;95.00;;;;;;5012497;28;20041;-82
2022/09/09 11:12:13;;;;;;;3.65;0.90;;;19.80;95.10;;;;;;5012505;28;20072;-82
2022/09/09 11:15:01;;;;;;;4.05;0.85;;;19.80;95.20;;;;;;5012560;28;20026;-82
2022/09/09 11:17:40;;;;;;;4.53;0.90;;;19.80;95.00;;;;;;5012054;28;20037;-82
2022/09/09 11:20:10;;;;;;;4.10;0.80;;;19.80;94.90;;;;;;4994763;28;20471;-82
2022/09/09 11:22:54;;;;;;;3.58;0.98;;;19.80;95.20;;;;;;5011157;28;20037;-83
2022/09/09 11:25:28;;;;;;;3.95;0.88;;;19.70;95.20;;;;;;5012336;28;20079;-82
2022/09/09 11:28:06;;;;;;;2.92;0.80;;;19.70;95.40;;;;;;5012011;28;20080;-82
2022/09/09 11:31:01;;;;;;;4.15;1.15;;;19.80;95.60;;;;;;5012247;28;20475;-82
2022/09/09 11:33:29;;;;;;;7.75;1.83;;;19.80;95.50;;;;;;5012203;28;20037;-82
2022/09/09 11:36:19;;;;;;;4.10;1.17;;;19.80;95.30;;;;;;5010878;28;20025;-83
2022/09/09 11:38:51;;;;;;;4.30;0.90;;;19.90;95.20;;;;;;5011779;28;20030;-82
2022/09/09 11:41:20;;;;;;;5.30;0.82;;;20.00;95.10;;;;;;5012043;28;20034;-83
2022/09/09 11:43:52;;;;;;;4.05;0.88;;;20.10;94.60;;;;;;5012034;28;20034;-82
2022/09/09 11:46:36;;;;;;;4.28;0.80;;;20.20;94.40;;;;;;5011713;28;20080;-83
2022/09/09 11:49:05;;;;;;;3.60;0.85;;;20.20;94.40;;;;;;5011758;28;20471;-83
2022/09/09 11:51:33;;;;;;;6.03;1.00;;;20.20;94.40;;;;;;5011846;28;20113;-82
2022/09/09 11:54:04;;;;;;;3.53;0.77;;;20.20;94.50;;;;;;5011800;28;20034;-83
2022/09/09 11:56:44;;;;;;;4.82;0.88;;;20.20;94.60;;;;;;5011462;28;20047;-83
2022/09/09 11:59:21;;;;;;;4.40;0.70;;;20.20;94.70;;;;;;5011428;28;20076;-82
2022/09/09 12:01:56;;;;;;;2.20;0.70;;;20.20;94.30;;;;;;5011564;28;20479;-83
2022/09/09 12:04:24;;;;;;;1.75;0.70;;;20.30;94.60;;;;;;5011873;28;20037;-82
2022/09/09 12:07:02;;;;;;;2.92;0.77;;;20.30;94.60;;;;;;5011426;28;20124;-82
2022/09/09 12:09:50;;;;;;;3.90;0.93;;;20.30;94.10;;;;;;5011210;28;20405;-83
2022/09/09 12:12:15;;;;;;;5.35;0.80;;;20.20;94.40;;;;;;5010393;28;20026;-82
2022/09/09 12:14:41;;;;;;;2.63;0.70;;;20.20;94.60;;;;;;5011014;28;20556;-82
2022/09/09 12:17:16;;;;;;;1.95;0.60;;;20.10;94.40;;;;;;4993622;28;20298;-83
2022/09/09 12:19:42;;;;;;;5.50;0.82;;;20.10;94.60;;;;;;5011266;28;20030;-82
2022/09/09 12:22:31;;;;;;;4.18;0.75;;;20.00;94.80;;;;;;5011293;28;20026;-82
2022/09/09 12:25:23;;;;;;;4.93;1.10;;;20.00;94.70;;;;;;5011276;28;20505;-82
2022/09/09 12:28:04;;;;;;;7.25;1.40;;;20.00;94.90;;;;;;5009989;28;20545;-82
2022/09/09 12:30:55;;;;;;;5.15;1.15;;;20.20;95.00;;;;;;5009570;28;20058;-82
2022/09/09 12:33:21;;;;;;;4.85;1.10;;;20.20;95.00;;;;;;5011084;28;20072;-82
2022/09/09 12:36:00;;;;;;;4.18;1.98;;;20.20;95.20;;;;;;5010834;28;20037;-82
2022/09/09 12:38:36;;;;;;;;;;;20.20;95.30;;;;;;4993630;28;20044;-82
2022/09/09 12:41:02;;;;;;;6.07;1.92;;;20.10;97.70;;;;;;5011250;28;20375;-82
2022/09/09 12:43:29;;;;;;;7.30;2.35;;;19.90;99.80;;;;;;5010087;28;20121;-82
2022/09/09 12:46:08;;;;;;;5.63;1.40;;;19.70;99.90;;;;;;5010852;28;20026;-82
2022/09/09 12:48:44;;;;;;;4.35;1.50;;;19.50;99.90;;;;;;5010764;28;20478;-82
2022/09/09 12:51:26;;;;;;;10.63;2.55;;;19.30;99.90;;;;;;5010865;28;20116;-82
2022/09/09 12:53:52;;;;;;;8.40;3.10;;;19.10;99.90;;;;;;5010994;28;20060;-82
2022/09/09 12:56:28;;;;;;;7.70;2.90;;;18.90;99.90;;;;;;5010652;28;20025;-82
2022/09/09 12:58:56;;;;;;;7.78;2.58;;;18.80;99.90;;;;;;5010778;28;20095;-81
2022/09/09 13:01:35;;;;;;;8.03;2.90;;;18.70;99.90;;;;;;4993359;28;20398;-82
2022/09/09 13:04:01;;;;;;;8.32;2.55;;;18.70;99.90;;;;;;4993376;28;20618;-82
2022/09/09 13:06:31;;;;;;;4.90;1.45;;;18.50;99.90;;;;;;5010670;28;20489;-82
2022/09/09 13:08:59;;;;;;;5.72;2.00;;;18.40;99.90;;;;;;5010746;28;20049;-82
2022/09/09 13:11:39;;;;;;;5.93;1.58;;;18.40;99.90;;;;;;5010732;28;20037;-82
2022/09/09 13:14:06;;;;;;;5.60;1.80;;;18.30;99.90;;;;;;5010710;28;20393;-82
2022/09/09 13:16:35;;;;;;;5.53;2.17;;;18.30;99.90;;;;;;5010559;28;20135;-82
2022/09/09 13:19:13;;;;;;;9.30;2.70;;;18.30;99.90;;;;;;5010583;28;20033;-82
2022/09/09 13:21:39;;;;;;;9.63;3.20;;;18.30;99.90;;;;;;5010665;28;20037;-82